Time;durP1;ratioP1;P1;durP2;ratioP2;P2;SDS_P1;SDS_P2;PMS_P1;PMS_P2;Temp;Humidity;BMP_temperature;BMP_pressure;BME280_temperature;BME280_humidity;BME280_pressure;Samples;Min_cycle;Max_cycle;Signal;HPM_P1;HPM_P2
2021/12/07 00:04:44;;;;;;;14.17;6.83;;;;;3.50;100176.00;;;;10450069;28;20197;-79
2021/12/07 00:09:49;;;;;;;12.90;5.87;;;;;3.40;100174.00;;;;10489263;28;20201;-79
2021/12/07 00:14:56;;;;;;;18.97;6.57;;;;;3.40;100189.00;;;;10474908;28;20204;-79
2021/12/07 00:19:58;;;;;;;10.87;5.60;;;;;3.40;100201.00;;;;10492081;28;20220;-79
2021/12/07 00:25:00;;;;;;;18.23;6.40;;;;;3.40;100192.00;;;;10491344;28;20254;-79
2021/12/07 00:30:05;;;;;;;18.23;6.17;;;;;3.50;100194.00;;;;10474688;28;20921;-79
2021/12/07 00:40:20;;;;;;;15.83;6.37;;;;;3.70;100226.00;;;;10518715;28;20223;-79
2021/12/07 00:45:24;;;;;;;13.30;6.37;;;;;3.70;100233.00;;;;10520476;28;20200;-80
2021/12/07 00:50:28;;;;;;;18.43;6.87;;;;;3.70;100240.00;;;;10513012;28;20734;-79
2021/12/07 00:55:35;;;;;;;20.90;6.30;;;;;3.70;100243.00;;;;10530372;27;20188;-79
2021/12/07 01:00:39;;;;;;;16.53;5.93;;;;;3.60;100253.00;;;;10549279;27;20228;-79
2021/12/07 01:05:47;;;;;;;16.40;6.20;;;;;3.60;100271.00;;;;10515165;27;20200;-79
2021/12/07 01:26:59;;;;;;;18.83;6.50;;;;;3.60;100285.00;;;;10527741;28;20205;-79
2021/12/07 01:32:17;;;;;;;18.40;4.43;;;;;3.60;100284.00;;;;10544450;28;20499;-79
2021/12/07 01:48:01;;;;;;;14.83;5.00;;;;;3.70;100321.00;;;;10546260;27;20666;-80
2021/12/07 02:03:27;;;;;;;15.13;4.83;;;;;3.60;100345.00;;;;10546350;27;20219;-79
2021/12/07 02:08:29;;;;;;;13.00;4.57;;;;;3.60;100345.00;;;;10517622;27;20228;-79
2021/12/07 02:18:36;;;;;;;17.80;4.17;;;;;3.50;100354.00;;;;10485692;28;20203;-79
2021/12/07 02:23:38;;;;;;;14.80;4.83;;;;;3.40;100344.00;;;;10486361;28;20223;-79
2021/12/07 02:28:40;;;;;;;18.70;5.43;;;;;3.50;100354.00;;;;10485593;28;20223;-80
2021/12/07 02:33:43;;;;;;;20.27;6.13;;;;;3.40;100369.00;;;;10486543;28;20238;-79
2021/12/07 02:38:45;;;;;;;17.47;5.90;;;;;3.40;100379.00;;;;10485520;28;20300;-79
2021/12/07 02:43:48;;;;;;;15.63;5.17;;;;;3.50;100377.00;;;;10485266;28;20921;-79
2021/12/07 02:48:51;;;;;;;16.27;5.17;;;;;3.60;100394.00;;;;10469794;28;20196;-79
2021/12/07 02:53:55;;;;;;;20.40;6.03;;;;;3.70;100395.00;;;;10486344;28;20254;-79
2021/12/07 02:59:02;;;;;;;15.70;5.07;;;;;3.60;100396.00;;;;10469037;28;20648;-79
2021/12/07 03:04:15;;;;;;;26.37;6.07;;;;;3.70;100403.00;;;;10501591;28;20228;-80
2021/12/07 03:25:46;;;;;;;16.60;4.10;;;;;3.60;100418.00;;;;10503853;28;20196;-79
2021/12/07 03:26:04;;;;;;;8.27;3.70;;;;;3.40;100416.00;;;;10552151;27;20202;-79
2021/12/07 03:31:10;;;;;;;12.57;4.00;;;;;3.30;100423.00;;;;10535901;27;20207;-79
2021/12/07 03:36:14;;;;;;;21.30;3.93;;;;;3.10;100428.00;;;;10518900;27;20208;-79
2021/12/07 03:41:19;;;;;;;10.07;3.37;;;;;3.00;100425.00;;;;10500296;28;20232;-78
2021/12/07 03:46:21;;;;;;;9.90;3.70;;;;;2.90;100421.00;;;;10492883;28;20245;-79
2021/12/07 03:51:24;;;;;;;10.60;3.30;;;;;2.80;100430.00;;;;10476140;28;20205;-78
2021/12/07 03:56:30;;;;;;;14.50;2.70;;;;;2.70;100421.00;;;;10493106;28;20250;-79
2021/12/07 04:01:32;;;;;;;17.40;3.57;;;;;2.60;100429.00;;;;10492430;28;20255;-79
2021/12/07 04:06:34;;;;;;;12.77;3.03;;;;;2.50;100430.00;;;;10507819;28;20231;-78
2021/12/07 04:11:36;;;;;;;14.67;4.10;;;;;2.50;100446.00;;;;10449366;28;20244;-79
2021/12/07 04:16:38;;;;;;;8.67;3.67;;;;;2.40;100447.00;;;;10450800;28;20216;-79
2021/12/07 04:21:40;;;;;;;11.10;2.60;;;;;2.30;100461.00;;;;10464688;28;20282;-79
2021/12/07 04:26:43;;;;;;;13.27;3.13;;;;;2.30;100467.00;;;;10466799;28;20193;-78
2021/12/07 04:31:45;;;;;;;16.23;3.80;;;;;2.20;100467.00;;;;10466403;28;20225;-79
2021/12/07 04:36:47;;;;;;;9.80;2.93;;;;;2.20;100465.00;;;;10449669;28;20196;-79
2021/12/07 04:41:51;;;;;;;14.07;3.03;;;;;2.10;100472.00;;;;10467249;28;20752;-79
2021/12/07 04:47:11;;;;;;;14.50;3.73;;;;;2.10;100467.00;;;;10464827;28;20205;-78
2021/12/07 04:57:51;;;;;;;10.43;2.60;;;;;1.90;100453.00;;;;10464974;28;20251;-78
2021/12/07 05:03:03;;;;;;;11.10;3.03;;;;;1.90;100444.00;;;;10447385;28;20229;-78
2021/12/07 05:08:10;;;;;;;15.53;3.50;;;;;1.80;100468.00;;;;10472333;28;20193;-78
2021/12/07 05:39:28;;;;;;;9.33;3.20;;;;;1.80;100529.00;;;;10507693;28;20689;-79
2021/12/07 05:44:30;;;;;;;22.37;3.87;;;;;1.80;100527.00;;;;10529839;27;20224;-80
2021/12/07 05:49:32;;;;;;;14.10;3.70;;;;;1.80;100520.00;;;;10513280;27;20207;-79
2021/12/07 05:54:34;;;;;;;16.57;4.03;;;;;1.80;100530.00;;;;10529906;27;20651;-79
2021/12/07 05:59:36;;;;;;;8.13;2.80;;;;;1.80;100536.00;;;;10528670;27;20229;-79
2021/12/07 06:04:38;;;;;;;17.77;4.70;;;;;1.80;100539.00;;;;10529997;27;20216;-79
2021/12/07 06:09:41;;;;;;;13.67;3.53;;;;;1.70;100544.00;;;;10524395;28;20205;-80
2021/12/07 06:14:44;;;;;;;21.03;4.07;;;;;1.80;100550.00;;;;10487072;28;20205;-79
2021/12/07 06:19:46;;;;;;;21.67;4.00;;;;;1.80;100545.00;;;;10470108;28;20205;-79
2021/12/07 06:24:49;;;;;;;18.07;4.70;;;;;1.70;100543.00;;;;10484786;28;20682;-80
2021/12/07 06:29:52;;;;;;;16.77;3.63;;;;;1.60;100543.00;;;;10481494;28;20216;-79
2021/12/07 06:34:54;;;;;;;19.43;3.40;;;;;1.70;100530.00;;;;10470387;28;20228;-79
2021/12/07 06:39:56;;;;;;;16.80;5.20;;;;;1.80;100529.00;;;;10483195;28;20234;-79
2021/12/07 06:44:58;;;;;;;22.53;7.23;;;;;1.80;100531.00;;;;10485521;28;20255;-79
2021/12/07 06:50:07;;;;;;;13.53;3.50;;;;;1.70;100520.00;;;;10479926;28;20236;-79
2021/12/07 06:55:09;;;;;;;7.07;3.40;;;;;1.70;100524.00;;;;10430406;28;20224;-80
2021/12/07 07:00:12;;;;;;;15.57;3.87;;;;;1.70;100517.00;;;;10461150;28;20229;-79
2021/12/07 07:05:15;;;;;;;12.33;3.00;;;;;1.70;100518.00;;;;10459950;28;20225;-79
2021/12/07 07:10:19;;;;;;;13.13;3.60;;;;;1.70;100530.00;;;;10452109;28;20208;-79
2021/12/07 07:15:21;;;;;;;11.60;3.30;;;;;1.70;100535.00;;;;10466892;28;20262;-80
2021/12/07 07:20:24;;;;;;;16.27;4.03;;;;;1.70;100548.00;;;;10481666;28;20253;-80
2021/12/07 07:25:26;;;;;;;14.50;2.77;;;;;1.70;100545.00;;;;10510909;28;20215;-80
2021/12/07 07:30:28;;;;;;;16.27;3.80;;;;;1.60;100557.00;;;;10505622;28;20205;-79
2021/12/07 07:35:30;;;;;;;16.47;3.30;;;;;1.70;100549.00;;;;10473145;28;20346;-80
2021/12/07 07:40:32;;;;;;;13.80;3.73;;;;;1.60;100545.00;;;;10443250;28;20267;-80
2021/12/07 07:45:34;;;;;;;23.77;5.33;;;;;1.70;100545.00;;;;10518340;28;20208;-80
2021/12/07 07:50:36;;;;;;;19.30;5.13;;;;;1.70;100529.00;;;;10521264;28;20231;-80
2021/12/07 07:55:42;;;;;;;10.87;3.50;;;;;1.80;100544.00;;;;10526702;28;20200;-80
2021/12/07 08:00:45;;;;;;;12.80;4.00;;;;;1.90;100550.00;;;;10550702;27;20204;-79
2021/12/07 08:05:49;;;;;;;11.27;4.20;;;;;2.00;100544.00;;;;10534446;27;20343;-79
2021/12/07 08:10:56;;;;;;;17.23;4.17;;;;;2.00;100542.00;;;;10542869;27;20667;-80
2021/12/07 08:15:59;;;;;;;11.53;4.90;;;;;2.00;100550.00;;;;10533424;27;20195;-80
2021/12/07 08:21:01;;;;;;;16.97;4.57;;;;;2.10;100549.00;;;;10517251;27;20192;-80
2021/12/07 08:26:05;;;;;;;13.30;3.77;;;;;2.20;100530.00;;;;10517438;27;20240;-79
2021/12/07 08:31:07;;;;;;;19.57;3.97;;;;;2.30;100512.00;;;;10504198;27;20208;-80
2021/12/07 08:36:09;;;;;;;25.03;4.50;;;;;2.50;100505.00;;;;10473577;28;20219;-79
2021/12/07 08:41:12;;;;;;;23.13;5.40;;;;;2.70;100507.00;;;;10457531;28;20275;-79
2021/12/07 08:46:15;;;;;;;21.37;4.43;;;;;2.90;100504.00;;;;10464590;28;20197;-79
2021/12/07 08:51:17;;;;;;;20.37;5.17;;;;;3.20;100510.00;;;;10488571;28;20258;-79
2021/12/07 09:01:40;;;;;;;16.60;4.57;;;;;4.00;100530.00;;;;10505242;28;20246;-80
2021/12/07 09:06:43;;;;;;;15.83;4.40;;;;;4.30;100536.00;;;;10505764;28;20197;-80
2021/12/07 09:11:46;;;;;;;16.43;3.57;;;;;4.50;100545.00;;;;10504913;28;20197;-79
2021/12/07 09:16:47;;;;;;;10.93;3.30;;;;;4.70;100543.00;;;;10488669;28;20200;-80
2021/12/07 09:21:50;;;;;;;13.37;3.50;;;;;5.00;100535.00;;;;10504758;28;20224;-79
2021/12/07 09:26:52;;;;;;;12.67;3.47;;;;;5.10;100527.00;;;;10489368;28;20200;-80
2021/12/07 09:31:55;;;;;;;14.57;2.83;;;;;5.30;100518.00;;;;10504052;28;20213;-80
2021/12/07 09:36:57;;;;;;;16.93;3.20;;;;;5.40;100515.00;;;;10503798;28;20220;-80
2021/12/07 09:41:59;;;;;;;11.67;3.53;;;;;5.60;100498.00;;;;10545028;27;20216;-79
2021/12/07 09:47:01;;;;;;;19.17;3.57;;;;;5.90;100500.00;;;;10529541;28;20192;-79
2021/12/07 09:52:03;;;;;;;11.60;3.27;;;;;6.30;100512.00;;;;10528669;28;20199;-79
2021/12/07 09:57:05;;;;;;;14.07;3.17;;;;;6.30;100498.00;;;;10512514;28;20203;-80
2021/12/07 10:02:07;;;;;;;12.17;2.80;;;;;6.40;100502.00;;;;10527846;28;20674;-79
2021/12/07 10:07:10;;;;;;;7.57;2.43;;;;;6.50;100489.00;;;;10544927;28;20249;-79
2021/12/07 10:12:18;;;;;;;11.20;3.07;;;;;6.70;100479.00;;;;10444380;28;20208;-79
2021/12/07 10:17:22;;;;;;;12.07;2.93;;;;;6.80;100467.00;;;;10428592;28;20837;-79
2021/12/07 10:22:24;;;;;;;13.73;2.90;;;;;7.00;100461.00;;;;10443699;28;20247;-79
2021/12/07 10:27:39;;;;;;;12.87;3.10;;;;;7.20;100436.00;;;;10455747;28;20717;-79
2021/12/07 10:32:42;;;;;;;9.93;2.90;;;;;7.40;100431.00;;;;10480432;28;20225;-79
2021/12/07 10:38:09;;;;;;;10.20;2.80;;;;;7.20;100429.00;;;;10427924;28;20568;-79
2021/12/07 10:43:11;;;;;;;13.20;2.80;;;;;7.30;100409.00;;;;10508226;28;20235;-80
2021/12/07 10:48:23;;;;;;;9.43;2.60;;;;;7.00;100395.00;;;;10458085;28;20209;-79
2021/12/07 10:53:34;;;;;;;11.50;3.33;;;;;6.00;100379.00;;;;10473759;28;20213;-79
2021/12/07 10:58:36;;;;;;;9.97;2.97;;;;;5.60;100378.00;;;;10443335;28;20565;-79
2021/12/07 11:03:38;;;;;;;8.30;2.60;;;;;5.30;100358.00;;;;10454395;28;20217;-79
2021/12/07 11:08:41;;;;;;;11.80;3.00;;;;;5.20;100361.00;;;;10472004;28;20197;-79
2021/12/07 11:13:50;;;;;;;12.80;3.10;;;;;5.20;100359.00;;;;10465473;28;20580;-79
2021/12/07 11:18:54;;;;;;;12.90;3.43;;;;;5.20;100341.00;;;;10458668;28;20204;-78
2021/12/07 11:24:03;;;;;;;13.77;3.17;;;;;5.50;100335.00;;;;10479302;28;20209;-79
2021/12/07 11:34:36;;;;;;;14.60;3.63;;;;;6.10;100306.00;;;;10477613;28;20229;-79
2021/12/07 11:39:54;;;;;;;20.20;3.80;;;;;6.30;100288.00;;;;10468617;28;20297;-79
2021/12/07 11:44:59;;;;;;;9.00;3.93;;;;;7.20;100276.00;;;;10484015;28;20683;-78
2021/12/07 11:50:20;;;;;;;12.67;3.60;;;;;7.60;100257.00;;;;10509003;28;20300;-79
2021/12/07 11:55:24;;;;;;;12.83;3.60;;;;;7.50;100238.00;;;;10469931;28;20209;-79
2021/12/07 12:00:34;;;;;;;10.07;3.43;;;;;7.40;100223.00;;;;10481127;28;20208;-79
2021/12/07 12:05:38;;;;;;;7.27;3.27;;;;;7.30;100207.00;;;;10491022;28;20227;-79
2021/12/07 12:10:43;;;;;;;9.60;4.00;;;;;7.20;100200.00;;;;10518736;27;20207;-78
2021/12/07 12:16:15;;;;;;;11.67;3.67;;;;;7.30;100179.00;;;;10517402;27;20215;-78
2021/12/07 12:21:34;;;;;;;10.77;3.37;;;;;7.30;100176.00;;;;10533202;28;20280;-78
2021/12/07 12:26:38;;;;;;;11.90;3.40;;;;;7.20;100142.00;;;;10502560;28;20200;-79
2021/12/07 12:31:55;;;;;;;7.27;3.70;;;;;7.10;100124.00;;;;10481106;28;20222;-78
2021/12/07 12:37:15;;;;;;;10.27;3.67;;;;;6.80;100115.00;;;;10493043;28;20212;-79
2021/12/07 12:42:33;;;;;;;13.37;4.53;;;;;6.60;100087.00;;;;10500378;28;20277;-79
2021/12/07 12:47:40;;;;;;;13.10;4.10;;;;;6.50;100070.00;;;;10486366;28;20709;-79
2021/12/07 12:53:04;;;;;;;9.77;3.93;;;;;6.40;100054.00;;;;10521118;27;20245;-80
2021/12/07 12:58:14;;;;;;;10.23;4.23;;;;;6.40;100065.00;;;;10493845;28;20262;-79
2021/12/07 13:03:16;;;;;;;8.80;3.70;;;;;6.50;100057.00;;;;10490298;28;20282;-79
2021/12/07 13:08:18;;;;;;;10.53;4.37;;;;;6.40;100038.00;;;;10466340;28;20229;-79
2021/12/07 13:13:36;;;;;;;11.10;4.30;;;;;6.30;100026.00;;;;10482612;28;20201;-78
2021/12/07 13:18:40;;;;;;;8.67;3.77;;;;;6.20;100022.00;;;;10510278;27;20211;-78
2021/12/07 13:23:56;;;;;;;6.90;3.67;;;;;6.20;100008.00;;;;10458917;28;20210;-78
2021/12/07 13:29:11;;;;;;;9.97;3.63;;;;;6.10;99985.00;;;;10483162;28;20192;-79
2021/12/07 13:34:15;;;;;;;5.43;3.20;;;;;6.00;99977.00;;;;10500082;28;20758;-78
2021/12/07 13:39:19;;;;;;;9.63;3.80;;;;;5.90;99964.00;;;;10478117;28;20215;-78
2021/12/07 13:44:23;;;;;;;14.67;5.23;;;;;5.90;99961.00;;;;10505749;28;20691;-79
2021/12/07 13:49:27;;;;;;;13.10;4.37;;;;;5.80;99945.00;;;;10487397;28;20414;-78
2021/12/07 13:54:29;;;;;;;17.53;4.00;;;;;5.60;99950.00;;;;10477303;28;20197;-78
2021/12/07 13:59:31;;;;;;;12.67;4.20;;;;;5.60;99947.00;;;;10452838;27;20212;-78
2021/12/07 14:04:33;;;;;;;11.97;4.53;;;;;5.50;99930.00;;;;10511799;27;20216;-78
2021/12/07 14:09:35;;;;;;;9.67;3.77;;;;;5.50;99927.00;;;;10496618;28;20612;-78
2021/12/07 14:14:37;;;;;;;8.70;4.00;;;;;5.50;99924.00;;;;10502241;28;20246;-78
2021/12/07 14:19:38;;;;;;;6.33;3.50;;;;;5.40;99918.00;;;;10486643;28;20663;-78
2021/12/07 14:24:40;;;;;;;10.80;4.00;;;;;5.40;99909.00;;;;10467036;28;20255;-78
2021/12/07 14:29:42;;;;;;;16.13;3.77;;;;;5.40;99914.00;;;;10544327;28;20663;-78
2021/12/07 14:34:47;;;;;;;5.37;3.00;;;;;5.30;99901.00;;;;10523331;28;20224;-78
2021/12/07 14:39:50;;;;;;;5.57;2.57;;;;;5.30;99887.00;;;;10484481;28;20212;-78
2021/12/07 14:44:56;;;;;;;7.80;2.40;;;;;5.20;99870.00;;;;10483175;28;20935;-78
2021/12/07 14:50:00;;;;;;;6.23;2.47;;;;;5.20;99864.00;;;;10492949;28;20858;-78
2021/12/07 14:55:04;;;;;;;3.00;1.83;;;;;5.10;99855.00;;;;10508263;28;20202;-78
2021/12/07 15:00:08;;;;;;;4.17;1.97;;;;;5.00;99852.00;;;;10476373;28;20209;-79
2021/12/07 15:05:11;;;;;;;3.20;2.07;;;;;4.90;99829.00;;;;10519926;28;20212;-80
2021/12/07 15:10:17;;;;;;;5.13;2.27;;;;;4.90;99821.00;;;;10486584;28;20743;-78
2021/12/07 15:15:19;;;;;;;3.40;2.60;;;;;4.80;99785.00;;;;10514131;28;20195;-79
2021/12/07 15:20:20;;;;;;;2.97;1.77;;;;;4.70;99750.00;;;;10482807;28;20668;-79
2021/12/07 15:25:22;;;;;;;5.43;2.00;;;;;4.70;99727.00;;;;10510062;28;20269;-78
2021/12/07 15:30:25;;;;;;;5.17;2.87;;;;;4.60;99681.00;;;;10503555;28;20238;-78
2021/12/07 15:35:27;;;;;;;5.63;3.00;;;;;4.60;99674.00;;;;10498530;28;20266;-78
2021/12/07 15:40:29;;;;;;;5.33;1.93;;;;;4.60;99669.00;;;;10497666;28;20251;-78
2021/12/07 15:45:31;;;;;;;8.87;2.87;;;;;4.60;99654.00;;;;10475466;28;20300;-78
2021/12/07 15:50:37;;;;;;;10.87;2.80;;;;;4.60;99660.00;;;;10471616;28;20291;-78
2021/12/07 15:55:46;;;;;;;6.30;2.90;;;;;4.60;99650.00;;;;10504527;28;20208;-78
2021/12/07 16:00:57;;;;;;;11.67;3.53;;;;;4.60;99634.00;;;;10508251;28;20197;-78
2021/12/07 16:06:05;;;;;;;6.87;3.20;;;;;4.60;99617.00;;;;10487944;28;20222;-79
2021/12/07 16:11:12;;;;;;;8.70;3.53;;;;;4.60;99587.00;;;;10481402;28;20197;-78
2021/12/07 16:16:21;;;;;;;13.97;4.27;;;;;4.60;99567.00;;;;10481657;28;20212;-78
2021/12/07 16:21:27;;;;;;;11.87;4.53;;;;;4.60;99538.00;;;;10475627;28;20205;-78
2021/12/07 16:26:29;;;;;;;11.67;4.00;;;;;4.60;99505.00;;;;10489876;28;20223;-78
2021/12/07 16:31:36;;;;;;;15.03;6.60;;;;;4.60;99491.00;;;;10493090;28;20221;-78
2021/12/07 16:36:38;;;;;;;17.87;2.80;;;;;4.70;99464.00;;;;10493716;28;20243;-79
2021/12/07 16:41:40;;;;;;;5.57;2.40;;;;;4.70;99447.00;;;;10468759;28;20675;-79
2021/12/07 16:46:42;;;;;;;6.60;2.43;;;;;4.70;99424.00;;;;10527759;27;20258;-78
2021/12/07 16:51:44;;;;;;;9.83;2.93;;;;;4.70;99418.00;;;;10512941;28;20675;-77
2021/12/07 16:56:46;;;;;;;10.53;3.43;;;;;4.70;99411.00;;;;10530628;28;20718;-78
2021/12/07 17:01:49;;;;;;;8.93;2.70;;;;;4.80;99379.00;;;;10492846;28;20644;-78
2021/12/07 17:06:51;;;;;;;9.70;2.70;;;;;4.80;99360.00;;;;10494448;27;20311;-78
2021/12/07 17:11:55;;;;;;;9.27;2.17;;;;;4.80;99328.00;;;;10487904;28;20216;-78
2021/12/07 17:16:58;;;;;;;14.77;3.20;;;;;4.90;99304.00;;;;10485733;28;20575;-78
2021/12/07 17:22:00;;;;;;;9.43;2.60;;;;;4.90;99289.00;;;;10508438;27;20257;-79
2021/12/07 17:27:03;;;;;;;13.90;3.07;;;;;4.90;99267.00;;;;10504355;27;20216;-78
2021/12/07 17:32:11;;;;;;;7.10;2.90;;;;;5.00;99255.00;;;;10473196;28;20765;-79
2021/12/07 17:37:14;;;;;;;9.50;2.63;;;;;5.00;99227.00;;;;10497788;28;20208;-79
2021/12/07 17:42:20;;;;;;;8.40;2.20;;;;;5.10;99190.00;;;;10484645;28;20193;-79
2021/12/07 17:47:23;;;;;;;6.47;2.10;;;;;5.10;99180.00;;;;10476744;28;20205;-78
2021/12/07 17:52:26;;;;;;;5.53;2.33;;;;;5.20;99178.00;;;;10454924;28;20200;-78
2021/12/07 17:57:29;;;;;;;5.23;2.60;;;;;5.20;99166.00;;;;10484546;28;20284;-78
2021/12/07 18:02:35;;;;;;;5.97;2.40;;;;;5.30;99157.00;;;;10517206;28;20304;-78
2021/12/07 18:07:42;;;;;;;10.33;2.23;;;;;5.40;99137.00;;;;10486088;28;20201;-78
2021/12/07 18:12:45;;;;;;;4.67;1.77;;;;;5.40;99123.00;;;;10501941;28;20220;-79
2021/12/07 18:17:52;;;;;;;6.90;2.17;;;;;5.50;99101.00;;;;10450066;28;20208;-78
2021/12/07 18:22:57;;;;;;;5.67;2.00;;;;;5.40;99089.00;;;;10443272;28;20213;-79
2021/12/07 18:28:09;;;;;;;7.77;2.80;;;;;5.50;99076.00;;;;10493342;28;20208;-79
2021/12/07 18:33:20;;;;;;;6.10;2.60;;;;;5.50;99047.00;;;;10485062;28;20312;-79
2021/12/07 18:38:29;;;;;;;5.90;1.90;;;;;5.50;99053.00;;;;10503148;28;20206;-79
2021/12/07 18:43:34;;;;;;;7.53;2.13;;;;;5.50;99015.00;;;;10426579;28;20225;-79
2021/12/07 18:48:39;;;;;;;7.90;2.80;;;;;5.60;98989.00;;;;10529583;28;20544;-79
2021/12/07 18:53:42;;;;;;;4.30;2.33;;;;;5.60;98985.00;;;;10526450;28;20218;-79
2021/12/07 18:58:45;;;;;;;6.83;1.90;;;;;5.60;98950.00;;;;10506481;28;20208;-79
2021/12/07 19:03:47;;;;;;;6.43;1.77;;;;;5.70;98953.00;;;;10466945;28;20228;-78
2021/12/07 19:08:49;;;;;;;5.87;1.90;;;;;5.80;98934.00;;;;10482856;28;20197;-79
2021/12/07 19:13:51;;;;;;;5.73;1.87;;;;;5.80;98933.00;;;;10460447;28;20196;-79
2021/12/07 19:18:53;;;;;;;5.33;1.83;;;;;5.90;98931.00;;;;10496544;28;20215;-79
2021/12/07 19:23:55;;;;;;;6.93;1.87;;;;;5.90;98944.00;;;;10480866;28;20228;-78
2021/12/07 19:28:57;;;;;;;4.13;1.27;;;;;5.90;98918.00;;;;10481921;28;20975;-78
2021/12/07 19:33:59;;;;;;;11.57;2.10;;;;;6.00;98939.00;;;;10497684;28;20216;-78
2021/12/07 19:39:04;;;;;;;4.40;2.80;;;;;6.00;98936.00;;;;10498620;28;20250;-79
2021/12/07 19:44:08;;;;;;;3.03;1.97;;;;;6.00;98923.00;;;;10480841;28;20278;-79
2021/12/07 19:49:12;;;;;;;5.20;2.30;;;;;6.10;98930.00;;;;10474702;28;20935;-79
2021/12/07 19:54:18;;;;;;;4.00;2.03;;;;;6.10;98925.00;;;;10484247;28;20808;-79
2021/12/07 19:59:23;;;;;;;3.97;1.47;;;;;6.10;98913.00;;;;10503071;28;20204;-79
2021/12/07 20:04:25;;;;;;;4.27;1.70;;;;;6.10;98890.00;;;;10470794;28;20220;-78
2021/12/07 20:09:27;;;;;;;6.43;2.40;;;;;6.20;98872.00;;;;10520240;28;20242;-79
2021/12/07 20:14:32;;;;;;;4.50;1.63;;;;;6.20;98843.00;;;;10487486;28;20215;-79
2021/12/07 20:19:45;;;;;;;5.33;2.13;;;;;6.30;98823.00;;;;10508850;28;20456;-79
2021/12/07 20:24:47;;;;;;;3.60;1.73;;;;;6.30;98792.00;;;;10493056;28;20255;-79
2021/12/07 20:30:00;;;;;;;3.30;1.80;;;;;6.30;98772.00;;;;10467934;28;20197;-79
2021/12/07 20:35:10;;;;;;;6.20;2.23;;;;;6.30;98733.00;;;;10498725;28;21374;-77
2021/12/07 20:40:22;;;;;;;3.00;2.03;;;;;6.30;98716.00;;;;10493645;28;20283;-78
2021/12/07 20:45:28;;;;;;;4.13;1.90;;;;;6.30;98693.00;;;;10492410;28;20224;-78
2021/12/07 20:50:32;;;;;;;5.93;1.60;;;;;6.30;98693.00;;;;10500850;28;20233;-78
2021/12/07 20:55:34;;;;;;;5.13;1.43;;;;;6.30;98700.00;;;;10508908;28;20780;-79
2021/12/07 21:00:37;;;;;;;6.10;2.80;;;;;6.30;98686.00;;;;10516337;28;20204;-78
2021/12/07 21:05:40;;;;;;;3.63;1.60;;;;;6.40;98686.00;;;;10504241;28;20242;-80
2021/12/07 21:10:57;;;;;;;8.70;1.67;;;;;6.40;98681.00;;;;10445272;28;20224;-80
2021/12/07 21:16:00;;;;;;;6.50;1.93;;;;;6.40;98682.00;;;;10487277;28;20220;-81
2021/12/07 21:21:07;;;;;;;2.80;1.50;;;;;6.20;98659.00;;;;10490550;28;20225;-82
2021/12/07 21:26:22;;;;;;;2.20;1.47;;;;;6.00;98643.00;;;;10488937;28;20315;-82
2021/12/07 21:31:39;;;;;;;6.00;1.67;;;;;5.90;98632.00;;;;10506259;27;20251;-83
2021/12/07 21:36:45;;;;;;;3.23;1.47;;;;;5.90;98630.00;;;;10501220;28;20197;-82
2021/12/07 21:41:51;;;;;;;6.93;1.50;;;;;5.90;98610.00;;;;10462894;28;20209;-83
2021/12/07 21:46:58;;;;;;;3.33;1.50;;;;;6.00;98613.00;;;;10487837;28;20213;-83
2021/12/07 21:52:00;;;;;;;4.83;1.60;;;;;6.00;98612.00;;;;10503747;28;20525;-83
2021/12/07 21:57:05;;;;;;;6.10;1.37;;;;;6.00;98605.00;;;;10482366;28;20200;-83
2021/12/07 22:02:07;;;;;;;3.20;1.27;;;;;6.00;98605.00;;;;10519952;28;20205;-84
2021/12/07 22:07:09;;;;;;;2.87;1.03;;;;;6.10;98600.00;;;;10490317;28;20223;-83
2021/12/07 22:12:11;;;;;;;4.23;1.57;;;;;6.10;98608.00;;;;10494169;28;20201;-83
2021/12/07 22:17:13;;;;;;;1.47;0.90;;;;;6.20;98613.00;;;;10485085;28;20197;-82
2021/12/07 22:22:15;;;;;;;2.97;1.10;;;;;6.10;98619.00;;;;10469768;28;20228;-81
2021/12/07 22:27:17;;;;;;;1.40;1.00;;;;;6.10;98613.00;;;;10473598;28;20225;-83
2021/12/07 22:32:19;;;;;;;1.20;1.10;;;;;6.20;98623.00;;;;10501823;28;20280;-82
2021/12/07 22:37:21;;;;;;;1.87;1.00;;;;;6.20;98637.00;;;;10505557;28;20292;-81
2021/12/07 22:42:35;;;;;;;1.17;1.07;;;;;6.30;98651.00;;;;10485177;28;20212;-82
2021/12/07 22:47:37;;;;;;;1.80;1.17;;;;;6.40;98639.00;;;;10469292;28;20262;-81
2021/12/07 22:52:40;;;;;;;1.23;0.80;;;;;6.40;98654.00;;;;10480236;28;20208;-81
2021/12/07 22:57:42;;;;;;;3.00;1.20;;;;;6.50;98661.00;;;;10449422;28;20204;-81
2021/12/07 23:02:45;;;;;;;1.83;1.00;;;;;6.50;98641.00;;;;10511089;28;20192;-81
2021/12/07 23:07:47;;;;;;;2.77;0.90;;;;;6.60;98652.00;;;;10457705;28;20233;-82
2021/12/07 23:12:49;;;;;;;1.97;1.17;;;;;6.60;98646.00;;;;10507794;28;20200;-81
2021/12/07 23:17:52;;;;;;;1.10;1.00;;;;;6.60;98646.00;;;;10494901;28;20210;-81
2021/12/07 23:22:54;;;;;;;1.23;0.87;;;;;6.60;98650.00;;;;10534525;28;20223;-81
2021/12/07 23:28:01;;;;;;;1.97;1.40;;;;;6.60;98657.00;;;;10490224;28;20266;-81
2021/12/07 23:33:07;;;;;;;2.10;0.73;;;;;6.70;98658.00;;;;10470755;28;20314;-81
2021/12/07 23:38:09;;;;;;;4.07;1.30;;;;;6.60;98647.00;;;;10514440;27;20197;-81
2021/12/07 23:43:12;;;;;;;3.50;1.20;;;;;6.50;98653.00;;;;10496139;28;20201;-81
2021/12/07 23:48:15;;;;;;;5.47;1.47;;;;;6.50;98636.00;;;;10508515;28;20275;-81
2021/12/07 23:53:18;;;;;;;3.57;1.10;;;;;6.40;98636.00;;;;10485391;28;20197;-81
2021/12/07 23:58:20;;;;;;;3.20;1.53;;;;;6.30;98632.00;;;;10466957;28;20606;-81
